createdAt,value
2022-12-26T00:04:49.891Z,4.50
2022-12-26T00:09:49.816Z,4.60
2022-12-26T00:14:49.471Z,3.87
2022-12-26T00:19:48.071Z,4.00
2022-12-26T00:24:46.605Z,3.30
2022-12-26T00:29:45.091Z,3.70
2022-12-26T00:34:45.000Z,4.07
2022-12-26T00:39:43.504Z,4.27
2022-12-26T00:44:42.026Z,3.60
2022-12-26T00:50:13.510Z,3.20
2022-12-26T00:55:00.158Z,3.43
2022-12-26T00:59:58.315Z,3.10
2022-12-26T01:04:56.803Z,3.20
2022-12-26T01:09:55.333Z,3.00
2022-12-26T01:21:43.260Z,2.70
2022-12-26T01:26:41.484Z,3.67
2022-12-26T01:31:39.809Z,3.83
2022-12-26T01:36:38.004Z,4.00
2022-12-26T01:41:38.485Z,3.43
2022-12-26T01:46:41.515Z,3.77
2022-12-26T01:58:14.123Z,3.87
2022-12-26T02:03:31.520Z,4.50
2022-12-26T02:08:34.205Z,4.80
2022-12-26T02:13:36.808Z,4.03
2022-12-26T02:18:35.387Z,3.70
2022-12-26T02:23:54.469Z,3.77
2022-12-26T02:29:24.786Z,3.47
2022-12-26T02:34:31.621Z,4.27
2022-12-26T02:39:46.922Z,3.50
2022-12-26T02:45:09.394Z,4.00
2022-12-26T02:50:36.436Z,4.10
2022-12-26T02:55:56.214Z,4.40
2022-12-26T03:01:24.680Z,4.30
2022-12-26T03:13:19.954Z,4.20
2022-12-26T03:18:20.706Z,4.50
2022-12-26T03:23:42.575Z,4.40
2022-12-26T03:28:43.643Z,3.63
2022-12-26T03:34:02.195Z,4.40
2022-12-26T03:39:11.459Z,4.47
2022-12-26T03:44:41.529Z,3.37
2022-12-26T03:50:03.518Z,5.07
2022-12-26T03:55:25.174Z,4.67
2022-12-26T04:00:43.368Z,3.40
2022-12-26T04:06:03.729Z,3.23
2022-12-26T04:11:21.896Z,3.30
2022-12-26T04:16:44.836Z,3.40
2022-12-26T04:22:06.399Z,2.83
2022-12-26T04:27:25.261Z,3.87
2022-12-26T04:32:49.968Z,3.50
2022-12-26T04:38:07.925Z,3.27
2022-12-26T04:43:50.340Z,3.63
2022-12-26T04:49:06.708Z,3.73
2022-12-26T04:54:06.794Z,3.40
2022-12-26T04:59:05.565Z,3.20
2022-12-26T05:04:22.995Z,3.23
2022-12-26T05:09:37.010Z,3.10
2022-12-26T05:14:37.134Z,3.60
2022-12-26T05:26:40.592Z,2.87
2022-12-26T05:31:39.299Z,2.10
2022-12-26T05:36:40.594Z,2.10
2022-12-26T05:41:41.034Z,1.93
2022-12-26T05:46:40.481Z,2.30
2022-12-26T05:58:22.810Z,1.43
2022-12-26T06:03:21.478Z,1.47
2022-12-26T06:08:20.111Z,1.60
2022-12-26T06:13:18.998Z,1.53
2022-12-26T06:18:19.027Z,1.50
2022-12-26T06:23:17.620Z,1.23
2022-12-26T06:28:15.848Z,1.23
2022-12-26T06:33:14.403Z,1.20
2022-12-26T06:38:14.352Z,1.40
2022-12-26T06:43:13.282Z,1.33
2022-12-26T06:48:11.880Z,1.07
2022-12-26T06:53:10.060Z,1.30
2022-12-26T06:58:10.773Z,1.20
2022-12-26T07:03:09.396Z,1.30
2022-12-26T07:08:08.429Z,1.30
2022-12-26T07:13:06.927Z,1.30
2022-12-26T07:18:06.988Z,2.20
2022-12-26T07:23:05.553Z,2.70
2022-12-26T07:28:03.758Z,3.37
2022-12-26T07:33:02.323Z,4.17
2022-12-26T07:38:02.156Z,4.20
2022-12-26T07:43:00.329Z,6.20
2022-12-26T07:47:59.746Z,4.50
2022-12-26T07:52:59.831Z,4.47
2022-12-26T07:57:59.790Z,4.73
2022-12-26T08:03:04.868Z,4.83
2022-12-26T08:08:06.358Z,4.73
2022-12-26T08:13:05.976Z,5.20
2022-12-26T08:18:04.525Z,5.30
2022-12-26T08:23:03.064Z,4.50
2022-12-26T08:28:01.671Z,5.67
2022-12-26T08:33:01.761Z,6.20
2022-12-26T08:38:01.533Z,5.97
2022-12-26T08:43:21.332Z,5.37
2022-12-26T08:48:20.433Z,5.93
2022-12-26T08:53:19.458Z,6.70
2022-12-26T08:58:18.177Z,6.30
2022-12-26T09:03:16.947Z,6.50
2022-12-26T09:08:17.040Z,6.47
2022-12-26T09:13:15.612Z,6.77
2022-12-26T09:18:14.151Z,5.83
2022-12-26T09:23:12.613Z,5.80
2022-12-26T09:28:12.148Z,5.80
2022-12-26T09:33:11.042Z,5.93
2022-12-26T09:38:09.571Z,5.17
2022-12-26T09:43:23.024Z,6.60
2022-12-26T09:48:28.636Z,5.90
2022-12-26T09:53:33.549Z,5.47
2022-12-26T10:05:23.510Z,5.40
2022-12-26T10:10:27.732Z,7.50
2022-12-26T10:15:37.196Z,7.53
2022-12-26T10:20:55.756Z,6.63
2022-12-26T10:25:58.520Z,8.40
2022-12-26T10:30:59.733Z,9.33
2022-12-26T10:36:48.287Z,8.60
2022-12-26T10:41:51.582Z,6.67
2022-12-26T10:47:15.328Z,7.37
2022-12-26T10:52:14.937Z,7.30
2022-12-26T10:57:15.430Z,7.50
2022-12-26T11:02:23.324Z,5.83
2022-12-26T11:07:21.774Z,6.23
2022-12-26T11:12:26.011Z,6.43
2022-12-26T11:24:19.845Z,5.43
2022-12-26T11:29:21.997Z,5.40
2022-12-26T11:34:27.185Z,5.53
2022-12-26T11:39:28.957Z,5.40
2022-12-26T11:44:31.918Z,4.70
2022-12-26T11:49:34.295Z,3.80
2022-12-26T11:54:35.861Z,4.90
2022-12-26T11:59:35.775Z,4.47
2022-12-26T12:11:31.851Z,3.30
2022-12-26T12:16:47.183Z,3.80
2022-12-26T12:21:48.574Z,3.10
2022-12-26T12:27:00.129Z,3.80
2022-12-26T12:32:10.505Z,2.17
2022-12-26T12:37:24.651Z,3.63
2022-12-26T12:42:33.419Z,4.40
2022-12-26T12:47:49.344Z,3.30
2022-12-26T12:53:23.131Z,4.37
2022-12-26T12:58:27.060Z,3.23
2022-12-26T13:03:34.366Z,3.73
2022-12-26T13:08:38.039Z,3.17
2022-12-26T13:13:41.896Z,3.40
2022-12-26T13:18:50.310Z,2.80
2022-12-26T13:24:09.334Z,3.43
2022-12-26T13:29:13.029Z,3.20
2022-12-26T13:34:17.339Z,2.97
2022-12-26T13:39:27.547Z,2.10
2022-12-26T13:44:28.634Z,2.57
2022-12-26T13:49:37.670Z,2.10
2022-12-26T13:54:37.148Z,1.63
2022-12-26T13:59:41.331Z,1.97
2022-12-26T14:04:53.719Z,1.63
2022-12-26T14:10:05.418Z,2.20
2022-12-26T14:15:31.566Z,1.87
2022-12-26T14:20:42.838Z,1.80
2022-12-26T14:25:54.096Z,1.27
2022-12-26T14:31:05.612Z,1.20
2022-12-26T14:36:35.445Z,1.10
2022-12-26T14:42:33.174Z,1.00
2022-12-26T14:47:41.193Z,1.07
2022-12-26T14:52:43.641Z,0.70
2022-12-26T14:57:49.664Z,0.70
2022-12-26T15:02:54.789Z,0.70
2022-12-26T15:08:41.412Z,0.93
2022-12-26T15:14:12.201Z,0.70
2022-12-26T15:19:49.003Z,0.60
2022-12-26T15:25:19.631Z,0.70
2022-12-26T15:30:22.183Z,0.60
2022-12-26T15:35:24.319Z,0.60
2022-12-26T15:40:26.385Z,0.90
2022-12-26T15:45:45.460Z,1.27
2022-12-26T15:50:56.286Z,0.73
2022-12-26T15:56:12.356Z,1.30
2022-12-26T16:01:12.252Z,1.77
2022-12-26T16:06:30.608Z,1.63
2022-12-26T16:11:57.714Z,0.80
2022-12-26T16:16:56.751Z,1.33
2022-12-26T16:22:18.696Z,1.00
2022-12-26T16:27:21.118Z,1.07
2022-12-26T16:32:22.564Z,1.07
2022-12-26T16:37:24.536Z,1.30
2022-12-26T16:42:33.137Z,0.97
2022-12-26T16:47:33.922Z,1.00
2022-12-26T16:52:39.269Z,1.27
2022-12-26T16:57:44.515Z,1.93
2022-12-26T17:02:47.773Z,1.40
2022-12-26T17:07:48.902Z,1.60
2022-12-26T17:12:49.266Z,1.43
2022-12-26T17:17:48.003Z,3.73
2022-12-26T17:29:47.703Z,2.00
2022-12-26T17:34:46.390Z,2.00
2022-12-26T17:39:44.676Z,2.70
2022-12-26T17:44:45.596Z,2.07
2022-12-26T17:49:43.833Z,2.07
2022-12-26T17:54:42.723Z,1.70
2022-12-26T17:59:41.820Z,1.50
2022-12-26T18:04:41.572Z,1.33
2022-12-26T18:09:40.292Z,1.27
2022-12-26T18:14:38.870Z,1.80
2022-12-26T18:19:37.049Z,1.77
2022-12-26T18:24:37.188Z,2.17
2022-12-26T18:29:36.333Z,2.07
2022-12-26T18:34:34.901Z,1.70
2022-12-26T18:39:33.396Z,2.03
2022-12-26T18:44:33.345Z,1.60
2022-12-26T18:49:31.952Z,1.70
2022-12-26T18:54:30.488Z,2.40
2022-12-26T18:59:28.995Z,2.10
2022-12-26T19:04:28.960Z,2.43
2022-12-26T19:09:27.524Z,2.43
2022-12-26T19:14:26.394Z,2.57
2022-12-26T19:19:27.001Z,2.03
2022-12-26T19:24:27.048Z,2.80
2022-12-26T19:29:25.643Z,2.07
2022-12-26T19:34:24.415Z,1.87
2022-12-26T19:39:24.428Z,1.80
2022-12-26T19:44:24.640Z,2.03
2022-12-26T19:49:30.252Z,1.97
2022-12-26T19:54:32.427Z,1.90
2022-12-26T19:59:32.475Z,2.03
2022-12-26T20:04:31.059Z,2.80
2022-12-26T20:09:29.843Z,2.07
2022-12-26T20:14:29.179Z,2.10
2022-12-26T20:19:29.541Z,1.70
2022-12-26T20:24:28.044Z,1.20
2022-12-26T20:29:26.784Z,1.97
2022-12-26T20:34:25.671Z,2.50
2022-12-26T20:39:25.947Z,1.40
2022-12-26T20:44:25.389Z,2.30
2022-12-26T20:49:24.061Z,2.80
2022-12-26T20:54:23.052Z,1.87
2022-12-26T20:59:22.954Z,1.70
2022-12-26T21:04:23.364Z,1.50
2022-12-26T21:09:21.936Z,1.40
2022-12-26T21:14:25.710Z,2.00
2022-12-26T21:19:25.730Z,2.13
2022-12-26T21:24:26.152Z,3.10
2022-12-26T21:29:28.071Z,2.13
2022-12-26T21:34:28.925Z,1.07
2022-12-26T21:39:27.023Z,1.90
2022-12-26T21:44:26.883Z,1.40
2022-12-26T21:49:25.412Z,1.67
2022-12-26T21:54:48.332Z,1.47
2022-12-26T21:59:58.979Z,1.70
2022-12-26T22:04:57.683Z,1.50
2022-12-26T22:16:54.635Z,1.80
2022-12-26T22:21:53.961Z,1.17
2022-12-26T22:26:52.534Z,1.70
2022-12-26T22:31:51.073Z,1.40
2022-12-26T22:36:51.007Z,0.83
2022-12-26T22:41:49.638Z,1.70
2022-12-26T22:46:48.211Z,1.83
2022-12-26T22:51:46.540Z,1.60
2022-12-26T22:56:46.386Z,1.90
2022-12-26T23:01:45.620Z,1.20
2022-12-26T23:06:44.784Z,1.10
2022-12-26T23:12:03.838Z,2.73
2022-12-26T23:17:07.464Z,1.90
2022-12-26T23:22:05.737Z,1.40
2022-12-26T23:27:20.167Z,2.33
2022-12-26T23:32:19.768Z,1.50
2022-12-26T23:37:18.394Z,1.60
2022-12-26T23:42:16.655Z,2.20
2022-12-26T23:47:15.218Z,1.90
2022-12-26T23:52:15.172Z,1.83
2022-12-26T23:57:13.695Z,2.00
